createdAt,value
2023-01-08T00:00:00.276Z,95.3
2023-01-08T00:10:00.263Z,95.2
2023-01-08T00:20:00.259Z,95.5
2023-01-08T00:30:00.270Z,95.6
2023-01-08T00:40:00.266Z,95.8
2023-01-08T00:50:00.296Z,96.0
2023-01-08T01:00:00.269Z,95.9
2023-01-08T01:10:00.289Z,95.8
2023-01-08T01:20:00.280Z,95.8
2023-01-08T01:30:00.273Z,95.7
2023-01-08T01:40:00.275Z,95.5
2023-01-08T01:50:00.265Z,95.6
2023-01-08T02:00:00.431Z,95.5
2023-01-08T02:10:00.475Z,95.5
2023-01-08T02:20:00.608Z,95.5
2023-01-08T02:30:00.430Z,95.5
2023-01-08T02:40:01.175Z,95.9
2023-01-08T02:50:00.398Z,95.8
2023-01-08T03:00:00.631Z,95.8
2023-01-08T03:10:00.364Z,95.7
2023-01-08T03:20:00.619Z,95.7
2023-01-08T03:30:00.305Z,95.8
2023-01-08T03:40:00.308Z,95.8
2023-01-08T03:50:00.275Z,95.6
2023-01-08T04:00:00.295Z,95.5
2023-01-08T04:10:00.257Z,95.3
2023-01-08T04:20:00.299Z,95.5
2023-01-08T04:30:00.298Z,95.1
2023-01-08T04:40:00.276Z,94.9
2023-01-08T04:50:00.279Z,94.8
2023-01-08T05:00:00.296Z,94.8
2023-01-08T05:10:00.277Z,95.0
2023-01-08T05:20:00.287Z,94.7
2023-01-08T05:30:00.428Z,94.7
2023-01-08T05:40:00.595Z,94.8
2023-01-08T05:50:00.529Z,94.7
2023-01-08T06:00:00.806Z,94.8
2023-01-08T06:10:01.725Z,94.7
2023-01-08T06:20:00.328Z,94.6
2023-01-08T06:30:00.322Z,94.4
2023-01-08T06:40:00.293Z,94.5
2023-01-08T06:50:00.287Z,94.3
2023-01-08T07:00:00.294Z,94.0
2023-01-08T07:10:00.278Z,94.3
2023-01-08T07:20:00.263Z,93.8
2023-01-08T07:30:00.285Z,93.5
2023-01-08T07:40:00.273Z,92.7
2023-01-08T07:50:00.288Z,91.7
2023-01-08T08:00:00.260Z,90.4
2023-01-08T08:10:00.251Z,89.6
2023-01-08T08:20:00.268Z,90.0
2023-01-08T08:30:00.687Z,89.7
2023-01-08T08:40:00.567Z,90.9
2023-01-08T08:50:00.606Z,91.1
2023-01-08T09:00:01.402Z,91.3
2023-01-08T09:10:00.409Z,91.4
2023-01-08T09:20:01.443Z,91.0
2023-01-08T09:30:00.412Z,90.3
2023-01-08T09:40:02.605Z,90.1
2023-01-08T09:50:00.279Z,90.1
2023-01-08T10:00:00.315Z,89.3
2023-01-08T10:10:00.283Z,88.3
2023-01-08T10:20:00.282Z,87.3
2023-01-08T10:30:00.267Z,86.3
2023-01-08T10:40:00.288Z,86.6
2023-01-08T10:50:00.285Z,86.2
2023-01-08T11:00:00.281Z,85.5
2023-01-08T11:10:00.321Z,83.5
2023-01-08T11:40:00.518Z,81.4
2023-01-08T11:50:00.515Z,82.0
2023-01-08T12:00:00.511Z,82.1
2023-01-08T12:10:00.492Z,81.5
2023-01-08T12:20:00.621Z,81.2
2023-01-08T12:30:01.544Z,80.5
2023-01-08T12:40:00.696Z,81.5
2023-01-08T12:50:00.550Z,81.6
2023-01-08T13:00:00.544Z,82.8
2023-01-08T13:10:00.574Z,84.7
2023-01-08T13:20:00.575Z,85.5
2023-01-08T13:30:00.565Z,85.9
2023-01-08T13:40:00.541Z,86.3
2023-01-08T13:50:00.580Z,86.3
2023-01-08T14:00:00.555Z,86.8
2023-01-08T14:10:00.561Z,87.0
2023-01-08T14:20:00.620Z,87.0
2023-01-08T14:30:00.560Z,87.6
2023-01-08T14:40:00.566Z,87.6
2023-01-08T14:50:00.552Z,87.7
2023-01-08T15:00:00.593Z,87.1
2023-01-08T15:10:00.553Z,87.1
2023-01-08T15:20:00.559Z,87.3
2023-01-08T15:30:00.548Z,87.9
2023-01-08T15:40:00.652Z,87.8
2023-01-08T15:50:00.604Z,88.1
2023-01-08T16:00:00.766Z,87.9
2023-01-08T16:10:00.939Z,88.1
2023-01-08T16:20:01.184Z,88.0
2023-01-08T16:30:00.809Z,88.8
2023-01-08T16:40:01.619Z,89.5
2023-01-08T16:50:00.835Z,89.5
2023-01-08T17:00:00.620Z,89.1
2023-01-08T17:10:00.597Z,88.6
2023-01-08T17:20:00.587Z,89.0
2023-01-08T17:30:00.589Z,88.9
2023-01-08T17:40:00.536Z,88.8
2023-01-08T17:50:00.576Z,88.7
2023-01-08T18:00:00.583Z,89.0
2023-01-08T18:10:00.649Z,88.8
2023-01-08T18:20:00.750Z,89.3
2023-01-08T18:30:00.712Z,89.5
2023-01-08T18:40:00.553Z,89.6
2023-01-08T18:50:00.588Z,89.9
2023-01-08T19:00:00.570Z,90.0
2023-01-08T19:10:00.547Z,90.3
2023-01-08T19:20:00.561Z,90.6
2023-01-08T19:30:00.554Z,90.9
2023-01-08T19:40:00.568Z,91.0
2023-01-08T19:50:00.566Z,91.5
2023-01-08T20:00:00.553Z,91.2
2023-01-08T20:10:00.566Z,90.7
2023-01-08T20:20:00.570Z,90.3
2023-01-08T20:30:00.556Z,90.8
2023-01-08T20:40:00.663Z,90.2
2023-01-08T20:50:03.292Z,89.1
2023-01-08T21:00:00.900Z,88.0
2023-01-08T21:10:00.759Z,88.4
2023-01-08T21:20:00.675Z,88.0
2023-01-08T21:30:00.852Z,89.2
2023-01-08T21:40:00.728Z,89.8
2023-01-08T21:50:00.805Z,91.2
2023-01-08T22:00:00.756Z,91.8
2023-01-08T22:10:01.146Z,92.0
2023-01-08T22:20:00.638Z,92.4
2023-01-08T22:30:00.553Z,92.1
2023-01-08T22:40:00.545Z,92.1
2023-01-08T22:50:00.607Z,93.6
2023-01-08T23:00:00.551Z,93.0
2023-01-08T23:10:00.549Z,93.4
2023-01-08T23:20:00.568Z,94.7
2023-01-08T23:30:00.568Z,94.6
2023-01-08T23:40:00.546Z,93.5
2023-01-08T23:50:00.570Z,94.0
